createdAt,value
2022-09-12T00:00:21.561Z,15.02
2022-09-12T00:01:21.970Z,15.07
2022-09-12T00:02:24.661Z,15.1
2022-09-12T00:03:21.540Z,15.07
2022-09-12T00:04:21.531Z,15.02
2022-09-12T00:05:21.547Z,14.94
2022-09-12T00:06:26.916Z,15.04
2022-09-12T00:07:21.538Z,15.07
2022-09-12T00:08:21.549Z,14.93
2022-09-12T00:09:21.566Z,14.86
2022-09-12T00:10:21.578Z,14.89
2022-09-12T00:11:21.553Z,14.9
2022-09-12T00:12:21.663Z,14.74
2022-09-12T00:13:24.605Z,14.79
2022-09-12T00:14:21.563Z,14.68
2022-09-12T00:15:21.587Z,14.73
2022-09-12T00:16:21.758Z,14.66
2022-09-12T00:17:21.563Z,14.67
2022-09-12T00:18:21.587Z,14.73
2022-09-12T00:19:21.557Z,14.67
2022-09-12T00:20:21.577Z,14.71
2022-09-12T00:21:21.578Z,14.67
2022-09-12T00:22:21.566Z,14.78
2022-09-12T00:23:21.580Z,14.71
2022-09-12T00:24:24.365Z,14.59
2022-09-12T00:25:21.591Z,14.53
2022-09-12T00:26:21.570Z,14.59
2022-09-12T00:27:21.587Z,14.55
2022-09-12T00:28:21.577Z,14.44
2022-09-12T00:29:21.632Z,14.43
2022-09-12T00:30:21.610Z,14.63
2022-09-12T00:31:21.781Z,14.62
2022-09-12T00:32:21.580Z,14.59
2022-09-12T00:33:21.587Z,14.52
2022-09-12T00:34:21.606Z,14.62
2022-09-12T00:35:24.627Z,14.67
2022-09-12T00:36:21.714Z,14.62
2022-09-12T00:37:21.590Z,14.55
2022-09-12T00:38:21.601Z,14.56
2022-09-12T00:39:21.595Z,14.55
2022-09-12T00:40:22.817Z,14.56
2022-09-12T00:41:21.600Z,14.41
2022-09-12T00:42:21.658Z,14.52
2022-09-12T00:43:21.598Z,14.59
2022-09-12T00:44:21.606Z,14.55
2022-09-12T00:45:21.687Z,14.56
2022-09-12T00:46:24.743Z,14.55
2022-09-12T00:47:21.619Z,14.53
2022-09-12T00:48:21.608Z,14.55
2022-09-12T00:49:21.612Z,14.49
2022-09-12T00:50:21.659Z,14.33
2022-09-12T00:51:24.463Z,14.44
2022-09-12T00:52:21.626Z,14.48
2022-09-12T00:53:21.619Z,14.44
2022-09-12T00:54:21.629Z,14.41
2022-09-12T00:55:21.637Z,14.43
2022-09-12T00:56:24.741Z,14.38
2022-09-12T00:57:24.733Z,14.52
2022-09-12T00:58:21.634Z,14.44
2022-09-12T00:59:21.625Z,14.43
2022-09-12T01:00:21.712Z,14.44
2022-09-12T01:01:21.968Z,14.43
2022-09-12T01:02:24.863Z,14.48
2022-09-12T01:03:21.657Z,14.43
2022-09-12T01:04:21.647Z,14.43
2022-09-12T01:05:21.653Z,14.36
2022-09-12T01:06:21.745Z,14.37
2022-09-12T01:07:21.761Z,14.34
2022-09-12T01:08:21.645Z,14.22
2022-09-12T01:09:21.650Z,14.37
2022-09-12T01:10:22.631Z,14.18
2022-09-12T01:11:21.647Z,14.19
2022-09-12T01:12:21.693Z,14.22
2022-09-12T01:13:24.465Z,14.23
2022-09-12T01:14:21.916Z,14.26
2022-09-12T01:15:21.677Z,14.19
2022-09-12T01:16:21.885Z,14.16
2022-09-12T01:17:21.679Z,14.16
2022-09-12T01:18:21.677Z,14.2
2022-09-12T01:19:21.679Z,14.18
2022-09-12T01:20:21.691Z,14.13
2022-09-12T01:21:21.680Z,14.15
2022-09-12T01:22:21.700Z,14.19
2022-09-12T01:23:21.719Z,14.2
2022-09-12T01:24:24.686Z,14.19
2022-09-12T01:25:21.698Z,14.18
2022-09-12T01:26:21.680Z,14.23
2022-09-12T01:27:21.703Z,14.19
2022-09-12T01:28:21.720Z,14.16
2022-09-12T01:29:21.818Z,14.18
2022-09-12T01:30:21.703Z,14.3
2022-09-12T01:31:21.714Z,14.2
2022-09-12T01:32:21.843Z,14.26
2022-09-12T01:33:21.714Z,14.3
2022-09-12T01:34:21.695Z,14.22
2022-09-12T01:35:24.644Z,14.13
2022-09-12T01:36:21.703Z,14.11
2022-09-12T01:37:21.714Z,14.18
2022-09-12T01:38:21.738Z,14.12
2022-09-12T01:39:21.698Z,14.07
2022-09-12T01:40:21.734Z,14.13
2022-09-12T01:41:21.695Z,14.11
2022-09-12T01:42:21.703Z,14.15
2022-09-12T01:43:21.711Z,14.12
2022-09-12T01:44:21.743Z,14.12
2022-09-12T01:45:21.717Z,14.18
2022-09-12T01:46:24.796Z,14.18
2022-09-12T01:47:21.706Z,14.2
2022-09-12T01:48:21.704Z,14.12
2022-09-12T01:49:21.748Z,14.15
2022-09-12T01:50:21.834Z,14.22
2022-09-12T01:51:21.715Z,14.18
2022-09-12T01:52:21.711Z,14.19
2022-09-12T01:53:21.717Z,14.13
2022-09-12T01:54:21.744Z,14.16
2022-09-12T01:55:21.741Z,14.15
2022-09-12T01:56:21.763Z,14.11
2022-09-12T01:57:21.721Z,14.11
2022-09-12T01:58:21.742Z,14.11
2022-09-12T01:59:21.751Z,14.08
2022-09-12T02:00:21.782Z,14.05
2022-09-12T02:01:21.970Z,14.04
2022-09-12T02:02:21.905Z,13.91
2022-09-12T02:03:21.746Z,13.85
2022-09-12T02:04:21.754Z,13.86
2022-09-12T02:05:21.760Z,13.95
2022-09-12T02:06:21.760Z,13.8
2022-09-12T02:07:21.739Z,13.89
2022-09-12T02:08:21.738Z,13.75
2022-09-12T02:09:21.748Z,13.8
2022-09-12T02:10:21.774Z,13.8
2022-09-12T02:11:22.714Z,13.76
2022-09-12T02:12:21.755Z,13.78
2022-09-12T02:13:21.754Z,13.7
2022-09-12T02:14:21.751Z,13.8
2022-09-12T02:15:21.755Z,13.82
2022-09-12T02:16:21.938Z,13.78
2022-09-12T02:17:21.757Z,13.78
2022-09-12T02:18:24.850Z,13.78
2022-09-12T02:19:21.763Z,13.79
2022-09-12T02:20:51.693Z,13.7
2022-09-12T02:21:21.806Z,13.79
2022-09-12T02:22:21.776Z,13.82
2022-09-12T02:23:21.777Z,13.73
2022-09-12T02:24:21.775Z,13.78
2022-09-12T02:25:21.777Z,13.79
2022-09-12T02:26:21.811Z,13.83
2022-09-12T02:27:21.792Z,13.83
2022-09-12T02:28:21.778Z,13.8
2022-09-12T02:29:24.838Z,13.8
2022-09-12T02:30:21.800Z,13.82
2022-09-12T02:31:21.796Z,13.85
2022-09-12T02:32:21.814Z,13.82
2022-09-12T02:33:21.798Z,13.83
2022-09-12T02:34:21.803Z,13.79
2022-09-12T02:35:21.796Z,13.78
2022-09-12T02:36:21.827Z,13.87
2022-09-12T02:37:21.823Z,13.78
2022-09-12T02:38:21.814Z,13.79
2022-09-12T02:39:21.798Z,13.73
2022-09-12T02:40:24.736Z,13.83
2022-09-12T02:41:21.819Z,13.78
2022-09-12T02:42:21.835Z,13.73
2022-09-12T02:43:21.801Z,13.78
2022-09-12T02:44:21.799Z,13.62
2022-09-12T02:45:21.802Z,13.7
2022-09-12T02:46:21.846Z,13.65
2022-09-12T02:47:21.803Z,13.7
2022-09-12T02:48:21.828Z,13.7
2022-09-12T02:49:21.805Z,13.67
2022-09-12T02:50:21.813Z,13.6
2022-09-12T02:51:27.457Z,13.57
2022-09-12T02:52:21.820Z,13.57
2022-09-12T02:53:21.850Z,13.5
2022-09-12T02:54:21.821Z,13.57
2022-09-12T02:55:21.830Z,13.49
2022-09-12T02:56:21.838Z,13.47
2022-09-12T02:57:29.726Z,13.43
2022-09-12T02:58:21.825Z,13.5
2022-09-12T02:59:21.829Z,13.46
2022-09-12T03:00:21.836Z,13.43
2022-09-12T03:01:21.941Z,13.54
2022-09-12T03:02:24.826Z,13.42
2022-09-12T03:03:21.840Z,13.46
2022-09-12T03:04:21.864Z,13.33
2022-09-12T03:05:21.849Z,13.37
2022-09-12T03:06:21.844Z,13.27
2022-09-12T03:07:24.768Z,13.28
2022-09-12T03:08:21.841Z,13.42
2022-09-12T03:09:22.014Z,13.4
2022-09-12T03:10:21.849Z,13.39
2022-09-12T03:11:21.845Z,13.42
2022-09-12T03:12:21.853Z,13.45
2022-09-12T03:13:24.671Z,13.31
2022-09-12T03:14:21.847Z,13.46
2022-09-12T03:15:21.856Z,13.4
2022-09-12T03:16:25.035Z,13.46
2022-09-12T03:17:21.861Z,13.42
2022-09-12T03:18:24.705Z,13.42
2022-09-12T03:19:21.872Z,13.47
2022-09-12T03:20:21.887Z,13.52
2022-09-12T03:21:21.877Z,13.43
2022-09-12T03:22:21.879Z,13.39
2022-09-12T03:23:24.643Z,13.36
2022-09-12T03:24:24.894Z,13.42
2022-09-12T03:25:21.907Z,13.47
2022-09-12T03:26:21.866Z,13.4
2022-09-12T03:27:21.873Z,13.4
2022-09-12T03:28:21.865Z,13.4
2022-09-12T03:29:24.907Z,13.39
2022-09-12T03:30:22.031Z,13.33
2022-09-12T03:31:21.935Z,13.39
2022-09-12T03:32:21.887Z,13.36
2022-09-12T03:33:21.881Z,13.37
2022-09-12T03:34:21.886Z,13.4
2022-09-12T03:35:27.440Z,13.31
2022-09-12T03:36:21.899Z,13.36
2022-09-12T03:37:21.893Z,13.23
2022-09-12T03:38:21.890Z,13.36
2022-09-12T03:39:21.901Z,13.27
2022-09-12T03:40:25.150Z,13.36
2022-09-12T03:41:21.894Z,13.45
2022-09-12T03:42:21.899Z,13.36
2022-09-12T03:43:21.903Z,13.33
2022-09-12T03:44:21.902Z,13.27
2022-09-12T03:45:22.167Z,13.3
2022-09-12T03:46:21.902Z,13.2
2022-09-12T03:47:21.909Z,13.17
2022-09-12T03:48:21.903Z,13.17
2022-09-12T03:49:22.062Z,13.2
2022-09-12T03:50:21.915Z,13.17
2022-09-12T03:51:24.692Z,13.27
2022-09-12T03:52:21.910Z,13.16
2022-09-12T03:53:22.223Z,13.06
2022-09-12T03:54:21.915Z,13.21
2022-09-12T03:55:21.923Z,13.2
2022-09-12T03:56:21.948Z,13.23
2022-09-12T03:57:21.935Z,13.19
2022-09-12T03:58:21.922Z,13.17
2022-09-12T03:59:21.925Z,13.12
2022-09-12T04:00:24.534Z,13.08
2022-09-12T04:01:22.025Z,13.12
2022-09-12T04:02:25.057Z,13.19
2022-09-12T04:03:24.781Z,13.24
2022-09-12T04:04:21.932Z,13.2
2022-09-12T04:05:21.945Z,13.2
2022-09-12T04:06:21.932Z,13.16
2022-09-12T04:07:22.041Z,13.08
2022-09-12T04:08:21.941Z,13.13
2022-09-12T04:09:21.944Z,13.09
2022-09-12T04:10:21.940Z,13.02
2022-09-12T04:11:21.969Z,12.99
2022-09-12T04:12:22.004Z,13.08
2022-09-12T04:13:24.730Z,12.94
2022-09-12T04:14:21.975Z,13.03
2022-09-12T04:15:21.952Z,13.09
2022-09-12T04:16:22.228Z,12.98
2022-09-12T04:17:21.970Z,13.03
2022-09-12T04:18:21.963Z,12.9
2022-09-12T04:19:21.965Z,12.9
2022-09-12T04:20:21.977Z,12.9
2022-09-12T04:21:21.992Z,12.91
2022-09-12T04:22:21.983Z,12.93
2022-09-12T04:23:21.988Z,12.91
2022-09-12T04:24:21.968Z,12.94
2022-09-12T04:25:21.965Z,12.91
2022-09-12T04:26:21.966Z,12.9
2022-09-12T04:27:22.010Z,12.9
2022-09-12T04:28:21.998Z,13.01
2022-09-12T04:29:22.014Z,13.01
2022-09-12T04:30:21.999Z,13.06
2022-09-12T04:31:21.983Z,12.98
2022-09-12T04:32:22.028Z,13.03
2022-09-12T04:33:21.985Z,13.03
2022-09-12T04:34:21.987Z,13.01
2022-09-12T04:35:21.992Z,12.95
2022-09-12T04:36:21.994Z,12.91
2022-09-12T04:37:22.008Z,12.94
2022-09-12T04:38:21.991Z,12.98
2022-09-12T04:39:22.021Z,13.03
2022-09-12T04:40:22.041Z,12.99
2022-09-12T04:41:21.999Z,13.11
2022-09-12T04:42:22.017Z,13.03
2022-09-12T04:43:21.998Z,13.03
2022-09-12T04:44:22.032Z,13.11
2022-09-12T04:45:25.023Z,13.01
2022-09-12T04:46:21.998Z,13.09
2022-09-12T04:47:22.030Z,13.08
2022-09-12T04:48:22.029Z,13.17
2022-09-12T04:49:22.008Z,13.19
2022-09-12T04:50:22.013Z,13.19
2022-09-12T04:51:22.017Z,13.17
2022-09-12T04:52:22.050Z,13.11
2022-09-12T04:53:22.021Z,13.17
2022-09-12T04:54:22.018Z,13.21
2022-09-12T04:55:22.041Z,13.2
2022-09-12T04:56:25.265Z,13.21
2022-09-12T04:57:22.055Z,13.16
2022-09-12T04:58:22.021Z,13.09
2022-09-12T04:59:22.027Z,13.08
2022-09-12T05:00:22.055Z,13.06
2022-09-12T05:01:22.299Z,13.13
2022-09-12T05:02:22.247Z,13.23
2022-09-12T05:03:22.050Z,13.17
2022-09-12T05:04:22.062Z,13.26
2022-09-12T05:05:22.045Z,13.27
2022-09-12T05:06:22.038Z,13.28
2022-09-12T05:07:24.957Z,13.27
2022-09-12T05:08:22.035Z,13.19
2022-09-12T05:09:22.043Z,13.09
2022-09-12T05:10:22.051Z,13.19
2022-09-12T05:12:03.058Z,13.16
2022-09-12T05:12:22.385Z,13.16
2022-09-12T05:13:22.065Z,13.24
2022-09-12T05:14:22.047Z,13.26
2022-09-12T05:15:22.094Z,13.3
2022-09-12T05:16:22.249Z,13.3
2022-09-12T05:17:22.071Z,13.31
2022-09-12T05:18:25.057Z,13.36
2022-09-12T05:19:22.062Z,13.27
2022-09-12T05:20:22.092Z,13.43
2022-09-12T05:21:22.058Z,13.27
2022-09-12T05:22:22.092Z,13.33
2022-09-12T05:23:22.066Z,13.4
2022-09-12T05:24:22.068Z,13.46
2022-09-12T05:25:22.064Z,13.4
2022-09-12T05:26:22.072Z,13.42
2022-09-12T05:27:22.149Z,13.46
2022-09-12T05:28:22.208Z,13.37
2022-09-12T05:29:24.860Z,13.45
2022-09-12T05:30:22.295Z,13.4
2022-09-12T05:31:22.145Z,13.39
2022-09-12T05:32:22.340Z,13.42
2022-09-12T05:33:27.523Z,13.45
2022-09-12T05:34:25.903Z,13.47
2022-09-12T05:35:22.355Z,13.46
2022-09-12T05:36:22.126Z,13.49
2022-09-12T05:37:22.104Z,13.49
2022-09-12T05:38:22.205Z,13.46
2022-09-12T05:39:22.654Z,13.54
2022-09-12T05:40:25.061Z,13.49
2022-09-12T05:41:27.467Z,13.61
2022-09-12T05:42:22.530Z,13.45
2022-09-12T05:43:22.226Z,13.52
2022-09-12T05:44:22.282Z,13.58
2022-09-12T05:45:25.404Z,13.58
2022-09-12T05:46:22.126Z,13.54
2022-09-12T05:47:22.116Z,13.43
2022-09-12T05:48:22.255Z,13.46
2022-09-12T05:49:22.122Z,13.49
2022-09-12T05:50:22.674Z,13.55
2022-09-12T05:51:25.257Z,13.52
2022-09-12T05:52:22.164Z,13.45
2022-09-12T05:53:22.220Z,13.54
2022-09-12T05:54:22.117Z,13.55
2022-09-12T05:55:22.495Z,13.52
2022-09-12T05:56:24.966Z,13.47
2022-09-12T05:57:22.134Z,13.55
2022-09-12T05:58:22.131Z,13.33
2022-09-12T05:59:22.991Z,13.47
2022-09-12T06:00:30.379Z,13.5
2022-09-12T06:01:22.431Z,13.54
2022-09-12T06:02:25.784Z,13.49
2022-09-12T06:03:25.000Z,13.6
2022-09-12T06:04:22.762Z,13.5
2022-09-12T06:05:22.143Z,13.57
2022-09-12T06:06:22.167Z,13.54
2022-09-12T06:07:23.994Z,13.6
2022-09-12T06:08:22.158Z,13.52
2022-09-12T06:09:22.136Z,13.54
2022-09-12T06:10:22.145Z,13.6
2022-09-12T06:11:22.150Z,13.52
2022-09-12T06:12:22.198Z,13.47
2022-09-12T06:13:22.153Z,13.54
2022-09-12T06:14:22.185Z,13.55
2022-09-12T06:15:22.176Z,13.6
2022-09-12T06:16:22.295Z,13.54
2022-09-12T06:17:22.201Z,13.39
2022-09-12T06:18:25.182Z,13.39
2022-09-12T06:19:22.165Z,13.31
2022-09-12T06:20:22.200Z,13.23
2022-09-12T06:21:22.168Z,13.39
2022-09-12T06:22:22.193Z,13.57
2022-09-12T06:23:22.181Z,13.55
2022-09-12T06:24:22.184Z,13.52
2022-09-12T06:25:22.178Z,13.6
2022-09-12T06:26:24.561Z,13.45
2022-09-12T06:27:22.362Z,13.54
2022-09-12T06:28:24.339Z,13.45
2022-09-12T06:29:25.542Z,13.28
2022-09-12T06:30:27.849Z,13.2
2022-09-12T06:31:22.218Z,13.27
2022-09-12T06:32:22.259Z,13.49
2022-09-12T06:33:22.220Z,13.52
2022-09-12T06:34:22.187Z,13.52
2022-09-12T06:35:22.235Z,13.57
2022-09-12T06:36:22.323Z,13.57
2022-09-12T06:37:22.470Z,13.62
2022-09-12T06:38:22.213Z,13.57
2022-09-12T06:39:22.340Z,13.71
2022-09-12T06:40:25.703Z,13.67
2022-09-12T06:41:22.443Z,13.68
2022-09-12T06:42:22.220Z,13.68
2022-09-12T06:43:22.194Z,13.79
2022-09-12T06:44:22.222Z,13.65
2022-09-12T06:45:22.205Z,13.78
2022-09-12T06:46:22.450Z,13.83
2022-09-12T06:47:22.234Z,13.78
2022-09-12T06:48:22.221Z,13.89
2022-09-12T06:49:22.341Z,14.01
2022-09-12T06:50:22.238Z,13.97
2022-09-12T06:51:22.219Z,14.01
2022-09-12T06:52:22.510Z,13.98
2022-09-12T06:53:22.429Z,14.04
2022-09-12T06:54:22.717Z,14.13
2022-09-12T06:55:30.023Z,14.04
2022-09-12T06:56:22.273Z,14.07
2022-09-12T06:57:22.299Z,14.07
2022-09-12T06:58:22.314Z,14.16
2022-09-12T06:59:22.249Z,14.12
2022-09-12T07:00:22.287Z,14.2
2022-09-12T07:01:23.408Z,14.19
2022-09-12T07:02:22.483Z,14.18
2022-09-12T07:03:22.273Z,14.19
2022-09-12T07:04:22.390Z,14.19
2022-09-12T07:05:22.400Z,14.23
2022-09-12T07:06:22.243Z,14.18
2022-09-12T07:08:25.142Z,14.25
2022-09-12T07:09:23.082Z,14.22
2022-09-12T07:10:26.851Z,14.15
2022-09-12T07:11:22.460Z,14.12
2022-09-12T07:12:25.335Z,14.19
2022-09-12T07:13:22.739Z,14.13
2022-09-12T07:14:22.787Z,14.19
2022-09-12T07:15:22.580Z,14.31
2022-09-12T07:16:24.655Z,14.16
2022-09-12T07:17:22.579Z,14.12
2022-09-12T07:18:22.282Z,14.2
2022-09-12T07:19:22.587Z,14.2
2022-09-12T07:20:22.318Z,14.37
2022-09-12T07:21:22.496Z,14.4
2022-09-12T07:22:22.509Z,14.45
2022-09-12T07:23:25.636Z,14.26
2022-09-12T07:24:22.463Z,14.25
2022-09-12T07:25:22.414Z,14.38
2022-09-12T07:26:26.105Z,14.37
2022-09-12T07:27:22.511Z,14.41
2022-09-12T07:28:22.310Z,14.48
2022-09-12T07:29:41.934Z,14.53
2022-09-12T07:30:22.287Z,14.55
2022-09-12T07:31:25.487Z,14.61
2022-09-12T07:32:22.369Z,14.58
2022-09-12T07:33:22.342Z,14.71
2022-09-12T07:34:25.545Z,14.7
2022-09-12T07:35:22.370Z,14.62
2022-09-12T07:36:22.295Z,14.71
2022-09-12T07:37:22.860Z,14.66
2022-09-12T07:38:22.439Z,14.73
2022-09-12T07:39:22.752Z,14.79
2022-09-12T07:40:23.104Z,14.82
2022-09-12T07:41:22.391Z,14.89
2022-09-12T07:42:22.442Z,14.81
2022-09-12T07:43:22.322Z,14.97
2022-09-12T07:44:25.367Z,14.93
2022-09-12T07:45:25.234Z,14.89
2022-09-12T07:46:22.528Z,14.9
2022-09-12T07:47:22.360Z,14.97
2022-09-12T07:48:22.346Z,14.96
2022-09-12T07:49:22.494Z,14.99
2022-09-12T07:50:22.611Z,15
2022-09-12T07:51:22.440Z,14.99
2022-09-12T07:52:22.335Z,15.11
2022-09-12T07:53:22.349Z,15.07
2022-09-12T07:54:22.363Z,15
2022-09-12T07:55:22.603Z,14.9
2022-09-12T07:56:29.605Z,15.04
2022-09-12T07:57:22.353Z,15.17
2022-09-12T07:58:22.393Z,15.25
2022-09-12T07:59:54.810Z,15.37
2022-09-12T08:00:22.510Z,15.33
2022-09-12T08:01:25.745Z,15.41
2022-09-12T08:02:22.771Z,15.48
2022-09-12T08:03:22.339Z,15.52
2022-09-12T08:04:22.352Z,15.48
2022-09-12T08:05:22.342Z,15.51
2022-09-12T08:06:22.396Z,15.48
2022-09-12T08:07:25.368Z,15.65
2022-09-12T08:08:22.350Z,15.7
2022-09-12T08:09:22.354Z,15.7
2022-09-12T08:10:22.362Z,15.75
2022-09-12T08:11:22.355Z,15.9
2022-09-12T08:12:23.133Z,15.69
2022-09-12T08:13:22.347Z,15.85
2022-09-12T08:14:22.358Z,15.75
2022-09-12T08:15:22.385Z,15.84
2022-09-12T08:16:22.358Z,15.94
2022-09-12T08:17:22.386Z,15.88
2022-09-12T08:18:25.137Z,15.85
2022-09-12T08:19:22.372Z,15.96
2022-09-12T08:20:25.320Z,15.92
2022-09-12T08:21:22.363Z,15.99
2022-09-12T08:22:22.420Z,15.99
2022-09-12T08:23:25.379Z,16.12
2022-09-12T08:24:22.381Z,16.18
2022-09-12T08:25:22.384Z,16.32
2022-09-12T08:26:22.379Z,16.44
2022-09-12T08:27:22.405Z,16.37
2022-09-12T08:28:22.403Z,16.49
2022-09-12T08:29:25.225Z,16.49
2022-09-12T08:30:22.439Z,16.58
2022-09-12T08:31:22.413Z,16.72
2022-09-12T08:32:22.419Z,16.86
2022-09-12T08:33:22.394Z,16.92
2022-09-12T08:34:25.211Z,16.91
2022-09-12T08:35:22.392Z,16.98
2022-09-12T08:36:22.397Z,16.83
2022-09-12T08:37:22.428Z,16.91
2022-09-12T08:38:22.437Z,17.01
2022-09-12T08:39:22.443Z,17.16
2022-09-12T08:40:22.544Z,17.05
2022-09-12T08:41:22.404Z,17.22
2022-09-12T08:42:22.428Z,17.1
2022-09-12T08:43:25.436Z,17.07
2022-09-12T08:44:22.438Z,17.1
2022-09-12T08:45:25.507Z,17.13
2022-09-12T08:46:22.569Z,17.23
2022-09-12T08:47:22.479Z,17.35
2022-09-12T08:48:22.424Z,17.41
2022-09-12T08:49:22.425Z,17.49
2022-09-12T08:50:22.527Z,17.41
2022-09-12T08:51:22.425Z,17.41
2022-09-12T08:52:22.437Z,17.52
2022-09-12T08:53:22.563Z,17.66
2022-09-12T08:54:22.442Z,17.63
2022-09-12T08:55:22.432Z,17.76
2022-09-12T08:56:28.479Z,18.06
2022-09-12T08:57:22.449Z,18.18
2022-09-12T08:58:22.536Z,18.45
2022-09-12T08:59:22.620Z,18.53
2022-09-12T09:00:22.471Z,18.78
2022-09-12T09:01:22.643Z,18.74
2022-09-12T09:02:22.655Z,18.91
2022-09-12T09:03:22.478Z,19.22
2022-09-12T09:04:24.638Z,19.47
2022-09-12T09:05:22.469Z,19.74
2022-09-12T09:06:22.452Z,20.07
2022-09-12T09:07:23.689Z,20.3
2022-09-12T09:08:22.471Z,20.34
2022-09-12T09:09:22.455Z,20.48
2022-09-12T09:10:22.479Z,20.71
2022-09-12T09:11:22.459Z,20.78
2022-09-12T09:12:22.490Z,21.07
2022-09-12T09:13:22.512Z,21.3
2022-09-12T09:14:22.457Z,21.45
2022-09-12T09:15:22.461Z,21.72
2022-09-12T09:16:22.699Z,21.83
2022-09-12T09:17:22.494Z,21.92
2022-09-12T09:18:25.436Z,22.06
2022-09-12T09:19:22.487Z,22.16
2022-09-12T09:20:23.435Z,22.51
2022-09-12T09:21:22.500Z,22.53
2022-09-12T09:22:22.513Z,22.67
2022-09-12T09:23:22.473Z,22.76
2022-09-12T09:24:22.485Z,23.07
2022-09-12T09:25:27.133Z,23.21
2022-09-12T09:26:22.499Z,23.49
2022-09-12T09:27:44.386Z,23.42
2022-09-12T09:28:22.482Z,23.44
2022-09-12T09:29:22.518Z,23.44
2022-09-12T09:30:22.488Z,23.71
2022-09-12T09:31:22.846Z,23.74
2022-09-12T09:32:22.521Z,23.73
2022-09-12T09:33:22.510Z,23.89
2022-09-12T09:34:22.513Z,24.06
2022-09-12T09:35:22.494Z,24.13
2022-09-12T09:36:22.485Z,24.21
2022-09-12T09:37:22.505Z,24.28
2022-09-12T09:38:22.532Z,24.37
2022-09-12T09:39:25.270Z,24.48
2022-09-12T09:40:22.908Z,24.21
2022-09-12T09:41:22.528Z,24.32
2022-09-12T09:42:22.514Z,24.47
2022-09-12T09:43:22.521Z,24.48
2022-09-12T09:44:22.526Z,24.65
2022-09-12T09:45:22.519Z,24.06
2022-09-12T09:46:22.693Z,24.25
2022-09-12T09:47:22.509Z,24.43
2022-09-12T09:48:22.579Z,24.69
2022-09-12T09:49:22.534Z,24.78
2022-09-12T09:50:25.590Z,24.41
2022-09-12T09:51:22.545Z,24.66
2022-09-12T09:52:22.580Z,24.82
2022-09-12T09:53:22.540Z,24.77
2022-09-12T09:54:22.531Z,24.89
2022-09-12T09:55:22.528Z,25.11
2022-09-12T09:56:28.860Z,25.18
2022-09-12T09:57:22.680Z,25.3
2022-09-12T09:58:22.741Z,25.43
2022-09-12T09:59:22.743Z,25.59
2022-09-12T10:00:22.993Z,25.59
2022-09-12T10:01:26.511Z,25.76
2022-09-12T10:02:28.065Z,25.91
2022-09-12T10:03:23.369Z,26.01
2022-09-12T10:04:22.665Z,25.96
2022-09-12T10:05:22.563Z,25.95
2022-09-12T10:06:23.170Z,25.98
2022-09-12T10:07:22.876Z,25.98
2022-09-12T10:08:22.738Z,26.18
2022-09-12T10:09:22.968Z,26.31
2022-09-12T10:10:23.021Z,26.41
2022-09-12T10:11:23.263Z,26.39
2022-09-12T10:12:25.570Z,26.37
2022-09-12T10:13:22.850Z,26.44
2022-09-12T10:14:25.804Z,26.16
2022-09-12T10:15:22.898Z,25.99
2022-09-12T10:16:23.313Z,26.27
2022-09-12T10:17:25.593Z,26.31
2022-09-12T10:18:22.593Z,26.44
2022-09-12T10:19:22.589Z,26.24
2022-09-12T10:20:27.442Z,26.39
2022-09-12T10:21:22.591Z,26.39
2022-09-12T10:22:22.613Z,26.53
2022-09-12T10:23:25.456Z,26.31
2022-09-12T10:24:22.599Z,26.31
2022-09-12T10:25:22.580Z,26.29
2022-09-12T10:26:22.607Z,26.01
2022-09-12T10:27:22.599Z,26.1
2022-09-12T10:28:22.641Z,25.83
2022-09-12T10:29:22.607Z,26.01
2022-09-12T10:30:22.594Z,25.95
2022-09-12T10:31:22.736Z,26.01
2022-09-12T10:32:23.353Z,25.99
2022-09-12T10:33:22.627Z,25.92
2022-09-12T10:34:25.698Z,25.86
2022-09-12T10:35:22.612Z,25.85
2022-09-12T10:36:22.635Z,25.78
2022-09-12T10:37:22.607Z,25.81
2022-09-12T10:38:22.667Z,25.91
2022-09-12T10:39:25.720Z,25.67
2022-09-12T10:40:22.861Z,25.55
2022-09-12T10:41:22.678Z,25.22
2022-09-12T10:42:27.803Z,24.92
2022-09-12T10:43:22.662Z,25.24
2022-09-12T10:44:22.652Z,25.21
2022-09-12T10:45:25.713Z,25.12
2022-09-12T10:46:22.885Z,25.16
2022-09-12T10:47:22.625Z,25.31
2022-09-12T10:48:22.651Z,25.26
2022-09-12T10:49:22.693Z,25.4
2022-09-12T10:50:27.747Z,25.62
2022-09-12T10:51:22.639Z,25.61
2022-09-12T10:52:22.724Z,25.63
2022-09-12T10:53:22.694Z,25.56
2022-09-12T10:54:22.764Z,25.73
2022-09-12T10:55:22.674Z,25.68
2022-09-12T10:56:25.659Z,25.92
2022-09-12T10:57:22.662Z,25.86
2022-09-12T10:58:22.690Z,25.85
2022-09-12T10:59:24.953Z,25.83
2022-09-12T11:00:22.758Z,25.93
2022-09-12T11:01:25.932Z,26.06
2022-09-12T11:02:22.864Z,26.11
2022-09-12T11:03:22.681Z,25.76
2022-09-12T11:04:22.656Z,25.92
2022-09-12T11:05:27.155Z,26.06
2022-09-12T11:06:22.670Z,25.95
2022-09-12T11:07:22.664Z,26.07
2022-09-12T11:08:22.707Z,26.07
2022-09-12T11:09:22.666Z,26.03
2022-09-12T11:10:22.707Z,26.1
2022-09-12T11:11:22.678Z,25.98
2022-09-12T11:12:25.446Z,25.89
2022-09-12T11:13:22.714Z,25.99
2022-09-12T11:14:22.872Z,25.52
2022-09-12T11:15:22.702Z,25.54
2022-09-12T11:16:22.853Z,25.56
2022-09-12T11:17:22.689Z,25.78
2022-09-12T11:18:22.720Z,25.96
2022-09-12T11:19:22.739Z,25.96
2022-09-12T11:20:22.697Z,25.98
2022-09-12T11:21:22.692Z,26.22
2022-09-12T11:22:31.662Z,26.31
2022-09-12T11:23:25.633Z,26.29
2022-09-12T11:24:22.914Z,26.29
2022-09-12T11:25:22.900Z,26.22
2022-09-12T11:26:22.975Z,26.08
2022-09-12T11:27:22.996Z,26.22
2022-09-12T11:28:22.732Z,25.99
2022-09-12T11:29:22.417Z,26.11
2022-09-12T11:30:22.755Z,25.95
2022-09-12T11:31:22.889Z,25.99
2022-09-12T11:32:22.942Z,25.89
2022-09-12T11:33:25.750Z,26.11
2022-09-12T11:34:25.931Z,25.99
2022-09-12T11:35:22.738Z,26.22
2022-09-12T11:36:22.737Z,26.22
2022-09-12T11:37:22.880Z,26.23
2022-09-12T11:38:22.745Z,26.26
2022-09-12T11:39:25.717Z,26.33
2022-09-12T11:40:23.009Z,26.11
2022-09-12T11:41:22.733Z,26.27
2022-09-12T11:42:25.856Z,26.06
2022-09-12T11:43:22.750Z,26.29
2022-09-12T11:44:22.740Z,26.41
2022-09-12T11:45:22.791Z,26.44
2022-09-12T11:46:23.113Z,26.39
2022-09-12T11:47:22.760Z,26.11
2022-09-12T11:48:22.758Z,26.24
2022-09-12T11:49:22.746Z,26.39
2022-09-12T11:50:22.750Z,26.39
2022-09-12T11:51:22.777Z,26.49
2022-09-12T11:52:22.917Z,26.48
2022-09-12T11:53:22.763Z,26.48
2022-09-12T11:54:22.804Z,26.27
2022-09-12T11:55:22.788Z,26.45
2022-09-12T11:56:22.907Z,26.27
2022-09-12T11:57:22.842Z,25.96
2022-09-12T11:58:31.598Z,25.77
2022-09-12T11:59:22.941Z,25.52
2022-09-12T12:00:22.759Z,25.49
2022-09-12T12:01:22.775Z,25.52
2022-09-12T12:02:22.619Z,25.7
2022-09-12T12:03:22.992Z,25.81
2022-09-12T12:04:22.773Z,25.86
2022-09-12T12:05:22.795Z,25.77
2022-09-12T12:06:25.946Z,25.77
2022-09-12T12:07:22.804Z,25.92
2022-09-12T12:08:22.792Z,25.91
2022-09-12T12:09:22.784Z,25.91
2022-09-12T12:10:22.789Z,26.15
2022-09-12T12:11:22.822Z,26.27
2022-09-12T12:12:22.785Z,26.08
2022-09-12T12:13:22.819Z,25.85
2022-09-12T12:14:22.849Z,25.86
2022-09-12T12:15:22.806Z,25.81
2022-09-12T12:16:23.028Z,25.92
2022-09-12T12:17:25.561Z,25.85
2022-09-12T12:18:22.659Z,25.85
2022-09-12T12:19:22.834Z,25.41
2022-09-12T12:20:22.947Z,25.62
2022-09-12T12:21:22.805Z,25.71
2022-09-12T12:22:22.801Z,25.41
2022-09-12T12:23:22.908Z,25.71
2022-09-12T12:24:22.843Z,25.8
2022-09-12T12:25:31.690Z,25.8
2022-09-12T12:26:22.816Z,25.66
2022-09-12T12:27:22.850Z,25.58
2022-09-12T12:28:25.700Z,25.55
2022-09-12T12:29:22.836Z,25.54
2022-09-12T12:30:22.903Z,25.67
2022-09-12T12:31:23.025Z,25.48
2022-09-12T12:32:22.944Z,25.37
2022-09-12T12:33:22.909Z,25.34
2022-09-12T12:34:22.853Z,25.29
2022-09-12T12:35:22.973Z,25.16
2022-09-12T12:36:22.926Z,25.14
2022-09-12T12:37:23.245Z,25.16
2022-09-12T12:38:22.917Z,25.29
2022-09-12T12:39:26.109Z,24.81
2022-09-12T12:40:23.105Z,24.69
2022-09-12T12:41:22.849Z,25.01
2022-09-12T12:42:25.414Z,25.09
2022-09-12T12:43:22.989Z,25.19
2022-09-12T12:44:22.858Z,25.15
2022-09-12T12:45:22.863Z,25.01
2022-09-12T12:46:23.064Z,25.12
2022-09-12T12:47:22.878Z,25.22
2022-09-12T12:48:22.871Z,24.96
2022-09-12T12:49:22.864Z,25.06
2022-09-12T12:50:25.990Z,25.09
2022-09-12T12:51:23.119Z,25.11
2022-09-12T12:52:23.093Z,25.11
2022-09-12T12:53:22.883Z,24.81
2022-09-12T12:54:22.887Z,24.94
2022-09-12T12:55:22.758Z,24.65
2022-09-12T12:56:22.902Z,24.63